Time;durP1;ratioP1;P1;durP2;ratioP2;P2;SDS_P1;SDS_P2;PMS_P1;PMS_P2;Temp;Humidity;BMP_temperature;BMP_pressure;BME280_temperature;BME280_humidity;BME280_pressure;Samples;Min_cycle;Max_cycle;Signal;HPM_P1;HPM_P2
2022/05/07 00:01:19;;;;;;;;;;;11.90;82.90;;;;;;5039649;28;20012;-65
2022/05/07 00:03:44;;;;;;;;;;;11.80;82.60;;;;;;5043692;28;19935;-65
2022/05/07 00:06:10;;;;;;;;;;;11.80;82.50;;;;;;5039394;28;19921;-65
2022/05/07 00:08:35;;;;;;;;;;;11.80;82.20;;;;;;5046881;28;19917;-65
2022/05/07 00:11:01;;;;;;;;;;;11.80;82.50;;;;;;5048330;28;19917;-65
2022/05/07 00:13:26;;;;;;;;;;;11.80;82.60;;;;;;5034858;28;19921;-65
2022/05/07 00:18:36;;;;;;;;;;;11.80;82.20;;;;;;5031436;28;19917;-65
2022/05/07 00:21:01;;;;;;;;;;;11.70;83.10;;;;;;5021795;28;19916;-65
2022/05/07 00:23:27;;;;;;;;;;;11.70;83.20;;;;;;5045505;28;19916;-65
2022/05/07 00:25:52;;;;;;;;;;;11.70;82.90;;;;;;5041063;28;20293;-65
2022/05/07 00:28:18;;;;;;;;;;;11.70;83.50;;;;;;5038629;28;19921;-65
2022/05/07 00:30:43;;;;;;;;;;;11.80;83.90;;;;;;5039785;28;20357;-65
2022/05/07 00:33:09;;;;;;;;;;;11.80;84.00;;;;;;5034407;28;20664;-65
2022/05/07 00:35:34;;;;;;;;;;;11.70;84.10;;;;;;5041073;28;19924;-65
2022/05/07 00:37:59;;;;;;;;;;;11.70;83.90;;;;;;5043252;28;19924;-65
2022/05/07 00:40:25;;;;;;;;;;;11.70;84.20;;;;;;5049822;28;19962;-65
2022/05/07 00:42:50;;;;;;;;;;;11.70;84.30;;;;;;5046050;28;19928;-66
2022/05/07 00:45:16;;;;;;;;;;;11.70;84.80;;;;;;5045357;28;19931;-65
2022/05/07 00:47:41;;;;;;;;;;;11.70;84.60;;;;;;5039108;28;19940;-65
2022/05/07 00:52:52;;;;;;;;;;;11.80;84.70;;;;;;5044306;28;20015;-65
2022/05/07 00:55:17;;;;;;;;;;;11.80;84.80;;;;;;5031111;28;20008;-65
2022/05/07 00:57:43;;;;;;;;;;;11.80;85.80;;;;;;5038582;28;19983;-65
2022/05/07 01:00:09;;;;;;;;;;;11.80;86.00;;;;;;5034126;28;20373;-65
2022/05/07 01:02:36;;;;;;;;;;;11.80;85.50;;;;;;5038783;28;20018;-65
2022/05/07 01:05:02;;;;;;;;;;;11.80;85.50;;;;;;5045068;28;19950;-65
2022/05/07 01:07:28;;;;;;;;;;;11.90;85.10;;;;;;5046164;28;19921;-65
2022/05/07 01:09:54;;;;;;;;;;;11.80;85.40;;;;;;5045877;28;20026;-65
2022/05/07 01:12:20;;;;;;;;;;;11.80;85.30;;;;;;5034911;28;19924;-65
2022/05/07 01:14:46;;;;;;;;;;;11.80;84.80;;;;;;5033722;28;19924;-65
2022/05/07 01:17:11;;;;;;;;;;;11.80;86.70;;;;;;5041141;28;19920;-65
2022/05/07 01:19:36;;;;;;;;;;;11.90;86.60;;;;;;5044926;28;19916;-65
2022/05/07 01:22:03;;;;;;;;;;;11.90;86.00;;;;;;5042962;28;19925;-66
2022/05/07 01:24:28;;;;;;;;;;;11.90;86.20;;;;;;5041066;28;19971;-65
2022/05/07 01:26:53;;;;;;;;;;;12.00;86.30;;;;;;5045458;28;19921;-65
2022/05/07 01:29:19;;;;;;;;;;;12.00;85.80;;;;;;5040684;28;20377;-65
2022/05/07 01:31:44;;;;;;;;;;;12.00;86.20;;;;;;5038637;28;20453;-65
2022/05/07 01:34:10;;;;;;;;;;;12.00;86.20;;;;;;5058598;28;19921;-65
2022/05/07 01:36:36;;;;;;;;;;;12.00;86.10;;;;;;5031018;28;19917;-65
2022/05/07 01:39:01;;;;;;;;;;;12.00;85.70;;;;;;5045288;28;19921;-65
2022/05/07 01:41:27;;;;;;;;;;;12.00;85.80;;;;;;5045826;28;19932;-65
2022/05/07 01:43:53;;;;;;;;;;;12.00;86.30;;;;;;5031997;28;19927;-65
2022/05/07 01:49:03;;;;;;;;;;;12.00;85.80;;;;;;5031402;28;19921;-65
2022/05/07 01:51:29;;;;;;;;;;;12.00;86.20;;;;;;5046822;28;20011;-65
2022/05/07 01:53:55;;;;;;;;;;;12.00;86.20;;;;;;5048443;28;19925;-66
2022/05/07 01:56:21;;;;;;;;;;;12.00;86.30;;;;;;5036788;28;19920;-66
2022/05/07 01:58:48;;;;;;;;;;;12.00;85.40;;;;;;5064164;28;19917;-65
2022/05/07 02:01:13;;;;;;;;;;;12.00;86.90;;;;;;5035684;28;19935;-65
2022/05/07 02:03:39;;;;;;;;;;;12.00;86.60;;;;;;5032506;28;19995;-66
2022/05/07 02:06:04;;;;;;;;;;;12.10;86.00;;;;;;5046474;28;19921;-65
2022/05/07 02:08:30;;;;;;;;;;;12.10;86.00;;;;;;5041099;28;19920;-66
2022/05/07 02:10:59;;;;;;;;;;;12.20;87.20;;;;;;5020913;28;20334;-65
2022/05/07 02:13:24;;;;;;;;;;;12.20;87.00;;;;;;5035157;28;20070;-66
2022/05/07 02:15:50;;;;;;;;;;;12.20;87.70;;;;;;5033327;28;20329;-65
2022/05/07 02:18:15;;;;;;;;;;;12.30;86.80;;;;;;5042282;28;19920;-65
2022/05/07 02:20:41;;;;;;;;;;;12.30;88.00;;;;;;5049751;28;19924;-66
2022/05/07 02:23:06;;;;;;;;;;;12.30;87.50;;;;;;5038382;28;19916;-66
2022/05/07 02:25:32;;;;;;;;;;;12.30;86.90;;;;;;5049367;28;19916;-66
2022/05/07 02:27:57;;;;;;;;;;;12.30;87.70;;;;;;5033334;28;19920;-65
2022/05/07 02:30:23;;;;;;;;;;;12.20;87.80;;;;;;5045949;28;20376;-66
2022/05/07 02:32:48;;;;;;;;;;;12.30;88.20;;;;;;5049231;28;19925;-66
2022/05/07 02:35:14;;;;;;;;;;;12.20;87.80;;;;;;5032906;28;19921;-65
2022/05/07 02:37:40;;;;;;;;;;;12.30;87.50;;;;;;5042513;28;19916;-65
2022/05/07 02:40:05;;;;;;;;;;;12.30;87.70;;;;;;5045044;28;19932;-66
2022/05/07 02:42:36;;;;;;;;;;;12.30;87.50;;;;;;5045928;28;19950;-65
2022/05/07 02:45:03;;;;;;;;;;;12.30;86.70;;;;;;5046302;28;20011;-66
2022/05/07 02:47:29;;;;;;;;;;;12.30;86.30;;;;;;5040366;28;20372;-66
2022/05/07 02:49:55;;;;;;;;;;;12.30;87.70;;;;;;5046030;28;19974;-65
2022/05/07 02:52:21;;;;;;;;;;;12.30;87.20;;;;;;5049173;28;19921;-66
2022/05/07 02:54:46;;;;;;;;;;;12.40;86.80;;;;;;5036387;28;20066;-66
2022/05/07 02:57:12;;;;;;;;;;;12.40;87.00;;;;;;5039652;28;20424;-66
2022/05/07 02:59:38;;;;;;;;;;;12.40;86.80;;;;;;5037062;28;19916;-66
2022/05/07 03:02:04;;;;;;;;;;;12.50;86.40;;;;;;5038889;28;20065;-66
2022/05/07 03:04:29;;;;;;;;;;;12.50;85.60;;;;;;5044862;28;20003;-66
2022/05/07 03:06:55;;;;;;;;;;;12.50;86.10;;;;;;5045790;28;19921;-66
2022/05/07 03:09:20;;;;;;;;;;;12.50;86.60;;;;;;5048437;28;19917;-66
2022/05/07 03:11:46;;;;;;;;;;;12.50;85.70;;;;;;5045039;28;19920;-66
2022/05/07 03:14:12;;;;;;;;;;;12.50;85.60;;;;;;5040308;28;19946;-66
2022/05/07 03:16:38;;;;;;;;;;;12.60;85.60;;;;;;5045553;28;20337;-66
2022/05/07 03:19:04;;;;;;;;;;;12.60;85.40;;;;;;5059498;28;20675;-66
2022/05/07 03:21:30;;;;;;;;;;;12.60;85.20;;;;;;5029628;28;19917;-66
2022/05/07 03:23:56;;;;;;;;;;;12.60;85.20;;;;;;5046534;28;20357;-66
2022/05/07 03:26:24;;;;;;;;;;;12.60;85.00;;;;;;5038983;28;20377;-65
2022/05/07 03:28:50;;;;;;;;;;;12.60;84.50;;;;;;5040944;28;19921;-65
2022/05/07 03:31:18;;;;;;;;;;;12.70;84.10;;;;;;5041685;28;19924;-67
2022/05/07 03:33:44;;;;;;;;;;;12.70;84.30;;;;;;5049003;28;19925;-66
2022/05/07 03:36:09;;;;;;;;;;;12.60;84.40;;;;;;5039238;28;19932;-66
2022/05/07 03:38:34;;;;;;;;;;;12.70;83.90;;;;;;5046815;28;20043;-65
2022/05/07 03:41:01;;;;;;;;;;;12.70;83.40;;;;;;5038969;28;19916;-66
2022/05/07 03:43:26;;;;;;;;;;;12.70;83.40;;;;;;5040533;28;19917;-66
2022/05/07 03:45:52;;;;;;;;;;;12.60;84.30;;;;;;5018786;28;19923;-66
2022/05/07 03:48:17;;;;;;;;;;;12.60;84.20;;;;;;5042893;28;19917;-66
2022/05/07 03:50:43;;;;;;;;;;;12.60;84.00;;;;;;5039698;28;20552;-66
2022/05/07 03:55:52;;;;;;;;;;;12.60;83.50;;;;;;5043711;28;19925;-66
2022/05/07 03:58:18;;;;;;;;;;;12.60;83.70;;;;;;5040022;28;19917;-65
2022/05/07 04:00:44;;;;;;;;;;;12.50;84.10;;;;;;5044387;28;19921;-66
2022/05/07 04:03:09;;;;;;;;;;;12.50;83.80;;;;;;5047930;28;20023;-66
2022/05/07 04:05:35;;;;;;;;;;;12.50;84.40;;;;;;5040313;28;19924;-66
2022/05/07 04:08:00;;;;;;;;;;;12.50;83.70;;;;;;5050772;28;20479;-66
2022/05/07 04:10:26;;;;;;;;;;;12.60;84.30;;;;;;5052453;28;20386;-66
2022/05/07 04:12:51;;;;;;;;;;;12.50;83.60;;;;;;5042743;28;19927;-66
2022/05/07 04:15:17;;;;;;;;;;;12.50;84.10;;;;;;5048474;28;19974;-66
2022/05/07 04:17:43;;;;;;;;;;;12.50;83.70;;;;;;5042115;28;19923;-66
2022/05/07 04:20:09;;;;;;;;;;;12.50;83.60;;;;;;5045633;28;20369;-66
2022/05/07 04:22:35;;;;;;;;;;;12.60;83.60;;;;;;5041787;28;19999;-66
2022/05/07 04:25:01;;;;;;;;;;;12.60;83.30;;;;;;5049278;28;19923;-66
2022/05/07 04:27:27;;;;;;;;;;;12.60;83.70;;;;;;5045132;28;19994;-66
2022/05/07 04:29:52;;;;;;;;;;;12.60;84.00;;;;;;5051970;28;20376;-65
2022/05/07 04:32:18;;;;;;;;;;;12.60;83.80;;;;;;5051921;28;19959;-66
2022/05/07 04:34:43;;;;;;;;;;;12.60;84.00;;;;;;5036026;28;19928;-66
2022/05/07 04:37:09;;;;;;;;;;;12.60;83.70;;;;;;5038974;28;20395;-66
2022/05/07 04:39:34;;;;;;;;;;;12.60;82.90;;;;;;5043650;28;19924;-65
2022/05/07 04:42:02;;;;;;;;;;;12.70;83.50;;;;;;5032506;28;19932;-66
2022/05/07 04:44:28;;;;;;;;;;;12.70;83.80;;;;;;5029849;28;19956;-66
2022/05/07 04:46:54;;;;;;;;;;;12.70;83.80;;;;;;5044231;28;19967;-65
2022/05/07 04:49:21;;;;;;;;;;;12.70;84.90;;;;;;5040235;28;19917;-65
2022/05/07 04:51:50;;;;;;;;;;;12.70;84.20;;;;;;5047094;28;19920;-66
2022/05/07 04:54:22;;;;;;;;;;;12.70;85.30;;;;;;5046414;28;20280;-66
2022/05/07 04:56:48;;;;;;;;;;;12.70;85.30;;;;;;5060191;28;20470;-65
2022/05/07 04:59:14;;;;;;;;;;;12.70;85.00;;;;;;5050205;28;19924;-66
2022/05/07 05:01:39;;;;;;;;;;;12.80;85.10;;;;;;5046558;28;19921;-66
2022/05/07 05:04:07;;;;;;;;;;;12.80;85.20;;;;;;5044861;28;19927;-65
2022/05/07 05:06:33;;;;;;;;;;;12.80;86.10;;;;;;5036260;28;20039;-65
2022/05/07 05:08:59;;;;;;;;;;;12.80;86.30;;;;;;5045633;28;20011;-66
2022/05/07 05:11:25;;;;;;;;;;;12.80;85.90;;;;;;5046186;28;20380;-65
2022/05/07 05:13:50;;;;;;;;;;;12.80;86.00;;;;;;5039055;28;19920;-65
2022/05/07 05:16:16;;;;;;;;;;;12.70;86.40;;;;;;5041492;28;19923;-65
2022/05/07 05:18:41;;;;;;;;;;;12.80;86.70;;;;;;5034675;28;19928;-65
2022/05/07 05:21:07;;;;;;;;;;;12.80;86.20;;;;;;5045669;28;20393;-65
2022/05/07 05:23:32;;;;;;;;;;;12.80;87.20;;;;;;5034365;28;19916;-65
2022/05/07 05:25:58;;;;;;;;;;;12.80;87.00;;;;;;5037224;28;19921;-66
2022/05/07 05:28:23;;;;;;;;;;;12.70;89.20;;;;;;5037187;28;19970;-67
2022/05/07 05:30:52;;;;;;;;;;;12.60;90.70;;;;;;5035962;28;19917;-66
2022/05/07 05:33:18;;;;;;;;;;;12.50;91.90;;;;;;5036028;28;19924;-66
2022/05/07 05:35:43;;;;;;;;;;;12.50;92.80;;;;;;5041347;28;19925;-66
2022/05/07 05:38:09;;;;;;;;;;;12.50;93.30;;;;;;5041802;28;20369;-66
2022/05/07 05:40:34;;;;;;;;;;;12.50;93.70;;;;;;5046553;28;19920;-66
2022/05/07 05:43:00;;;;;;;;;;;12.40;94.20;;;;;;5046779;28;20029;-66
2022/05/07 05:45:27;;;;;;;;;;;12.40;94.60;;;;;;5042686;28;19932;-66
2022/05/07 05:47:53;;;;;;;;;;;12.50;94.70;;;;;;5030208;28;20468;-66
2022/05/07 05:50:18;;;;;;;;;;;12.50;94.40;;;;;;5036833;28;20075;-66
2022/05/07 05:52:44;;;;;;;;;;;12.50;94.60;;;;;;5049612;28;19921;-66
2022/05/07 05:55:09;;;;;;;;;;;12.50;94.80;;;;;;5041104;28;19977;-66
2022/05/07 05:57:35;;;;;;;;;;;12.50;95.40;;;;;;5033601;28;19921;-66
2022/05/07 06:00:00;;;;;;;;;;;12.60;95.40;;;;;;5049635;28;20376;-66
2022/05/07 06:02:26;;;;;;;;;;;12.60;95.70;;;;;;5042191;28;20395;-66
2022/05/07 06:04:51;;;;;;;;;;;12.70;95.60;;;;;;5041790;28;19917;-65
2022/05/07 06:07:17;;;;;;;;;;;12.80;95.10;;;;;;5033298;28;20062;-66
2022/05/07 06:09:42;;;;;;;;;;;12.80;95.40;;;;;;5048750;28;19916;-66
2022/05/07 06:12:08;;;;;;;;;;;12.80;95.50;;;;;;5046760;28;19917;-65
2022/05/07 06:14:33;;;;;;;;;;;12.90;95.00;;;;;;5039936;28;20379;-66
2022/05/07 06:16:59;;;;;;;;;;;12.90;93.50;;;;;;5037145;28;20028;-65
2022/05/07 06:19:26;;;;;;;;;;;13.00;95.10;;;;;;5044107;28;19925;-65
2022/05/07 06:21:51;;;;;;;;;;;13.20;95.10;;;;;;5044149;28;19924;-65
2022/05/07 06:29:45;;;;;;;;;;;13.40;93.40;;;;;;5045805;28;19924;-65
2022/05/07 06:32:11;;;;;;;;;;;13.40;94.00;;;;;;5043969;28;19916;-65
2022/05/07 06:34:37;;;;;;;;;;;13.50;94.20;;;;;;5050230;28;19952;-66
2022/05/07 06:37:02;;;;;;;;;;;13.50;92.30;;;;;;5036326;28;19967;-66
2022/05/07 06:39:28;;;;;;;;;;;13.40;92.20;;;;;;5043828;28;20424;-66
2022/05/07 06:41:53;;;;;;;;;;;13.50;92.00;;;;;;5039957;28;19917;-65
2022/05/07 06:44:19;;;;;;;;;;;13.40;91.90;;;;;;5044336;28;20340;-66
2022/05/07 06:46:44;;;;;;;;;;;13.50;91.60;;;;;;5044617;28;19932;-65
2022/05/07 06:49:10;;;;;;;;;;;13.50;92.30;;;;;;5046619;28;19996;-65
2022/05/07 06:51:35;;;;;;;;;;;13.60;91.70;;;;;;5035117;28;20323;-65
2022/05/07 06:54:01;;;;;;;;;;;13.80;92.70;;;;;;5029799;28;19921;-65
2022/05/07 06:56:26;;;;;;;;;;;13.90;91.20;;;;;;5036684;28;19921;-65
2022/05/07 06:58:52;;;;;;;;;;;14.10;91.70;;;;;;5040610;28;19917;-66
2022/05/07 07:01:18;;;;;;;;;;;14.20;90.40;;;;;;5029363;28;20397;-65
2022/05/07 07:03:43;;;;;;;;;;;14.20;91.30;;;;;;5049732;28;19916;-66
2022/05/07 07:06:09;;;;;;;;;;;14.30;91.80;;;;;;5042654;28;19917;-66
2022/05/07 07:08:34;;;;;;;;;;;14.50;92.00;;;;;;5040654;28;19960;-65
2022/05/07 07:11:00;;;;;;;;;;;14.50;90.40;;;;;;5047467;28;20483;-65
2022/05/07 07:13:25;;;;;;;;;;;14.60;86.10;;;;;;5046790;28;20400;-66
2022/05/07 07:15:51;;;;;;;;;;;14.80;89.60;;;;;;5045201;28;19975;-65
2022/05/07 07:18:17;;;;;;;;;;;14.90;87.30;;;;;;5047623;28;19917;-66
2022/05/07 07:20:44;;;;;;;;;;;15.00;85.70;;;;;;5048617;28;19921;-66
2022/05/07 07:23:11;;;;;;;;;;;15.10;84.00;;;;;;5045485;28;19963;-66
2022/05/07 07:25:40;;;;;;;;;;;15.20;86.30;;;;;;5041585;28;20392;-66
2022/05/07 07:28:06;;;;;;;;;;;15.30;83.50;;;;;;5044188;28;19932;-66
2022/05/07 07:30:32;;;;;;;;;;;15.50;82.20;;;;;;5048448;28;19916;-65
2022/05/07 07:32:57;;;;;;;;;;;15.50;82.70;;;;;;5038406;28;20439;-66
2022/05/07 07:35:23;;;;;;;;;;;15.70;80.50;;;;;;5047138;28;19917;-66
2022/05/07 07:37:49;;;;;;;;;;;15.80;81.50;;;;;;5049519;28;20058;-66
2022/05/07 07:40:15;;;;;;;;;;;15.90;78.40;;;;;;5047347;28;19921;-66
2022/05/07 07:42:43;;;;;;;;;;;16.20;79.10;;;;;;5042784;28;19924;-67
2022/05/07 07:48:00;;;;;;;;;;;16.50;77.00;;;;;;5029187;28;19917;-66
2022/05/07 07:50:26;;;;;;;;;;;16.80;76.50;;;;;;5016431;28;20056;-66
2022/05/07 07:52:53;;;;;;;;;;;16.90;75.80;;;;;;5029003;28;20344;-66
2022/05/07 07:55:19;;;;;;;;;;;17.10;75.10;;;;;;5004029;28;1028121;-66
2022/05/07 07:57:44;;;;;;;;;;;17.20;75.20;;;;;;5027947;28;19971;-66
2022/05/07 08:00:10;;;;;;;;;;;17.30;75.60;;;;;;5037510;28;20282;-66
2022/05/07 08:02:45;;;;;;;;;;;17.50;74.90;;;;;;5039917;28;19917;-66
2022/05/07 08:05:10;;;;;;;;;;;17.40;72.40;;;;;;5047096;28;19923;-67
2022/05/07 08:13:04;;;;;;;;;;;17.80;68.70;;;;;;5035211;28;19961;-66
2022/05/07 08:15:29;;;;;;;;;;;18.00;69.30;;;;;;5040212;28;19960;-67
2022/05/07 08:17:55;;;;;;;;;;;18.00;68.10;;;;;;5042596;28;20018;-67
2022/05/07 08:20:20;;;;;;;;;;;17.90;67.60;;;;;;5033360;28;19917;-66
2022/05/07 08:22:46;;;;;;;;;;;17.90;67.20;;;;;;5039208;28;19916;-66
2022/05/07 08:25:11;;;;;;;;;;;18.00;68.70;;;;;;5049400;28;19923;-67
2022/05/07 08:27:37;;;;;;;;;;;18.20;69.40;;;;;;5046601;28;19959;-66
2022/05/07 08:30:04;;;;;;;;;;;18.30;68.50;;;;;;5034641;28;19924;-67
2022/05/07 08:32:29;;;;;;;;;;;18.40;68.80;;;;;;5039533;28;19921;-66
2022/05/07 08:34:54;;;;;;;;;;;18.60;67.20;;;;;;5049289;28;19920;-67
2022/05/07 08:37:20;;;;;;;;;;;18.70;67.70;;;;;;5051001;28;19920;-66
2022/05/07 08:39:45;;;;;;;;;;;18.70;63.70;;;;;;5037382;28;19975;-68
2022/05/07 08:42:11;;;;;;;;;;;18.70;65.60;;;;;;5017901;28;20392;-66
2022/05/07 08:44:36;;;;;;;;;;;18.60;63.60;;;;;;5051822;28;19992;-66
2022/05/07 08:47:02;;;;;;;;;;;18.60;62.70;;;;;;5050650;28;19916;-66
2022/05/07 08:49:28;;;;;;;;;;;18.50;62.70;;;;;;5045745;28;19921;-66
2022/05/07 08:51:54;;;;;;;;;;;18.40;63.70;;;;;;5051131;28;19995;-66
2022/05/07 08:54:20;;;;;;;;;;;18.50;59.40;;;;;;5052020;28;20015;-66
2022/05/07 08:56:45;;;;;;;;;;;18.50;60.90;;;;;;5051282;28;20010;-65
2022/05/07 08:59:11;;;;;;;;;;;18.70;61.60;;;;;;5049549;28;19917;-67
2022/05/07 09:01:36;;;;;;;;;;;19.00;62.10;;;;;;5052228;28;20325;-66
2022/05/07 09:04:11;;;;;;;;;;;19.20;62.20;;;;;;5047166;28;19924;-67
2022/05/07 09:06:37;;;;;;;;;;;19.40;60.30;;;;;;5042453;28;20670;-65
2022/05/07 09:09:06;;;;;;;;;;;19.70;60.90;;;;;;5043953;28;19944;-66
2022/05/07 09:11:39;;;;;;;;;;;19.70;59.00;;;;;;5051172;28;19990;-66
2022/05/07 09:14:05;;;;;;;;;;;19.80;58.50;;;;;;5050483;28;19928;-67
2022/05/07 09:16:41;;;;;;;;;;;19.50;59.10;;;;;;5043947;28;20390;-67
2022/05/07 09:19:17;;;;;;;;;;;19.60;60.20;;;;;;5045076;28;19962;-66
2022/05/07 09:21:42;;;;;;;;;;;19.80;60.10;;;;;;5024229;28;20277;-65
2022/05/07 09:24:08;;;;;;;;;;;20.00;59.20;;;;;;5047882;28;19930;-67
2022/05/07 09:26:35;;;;;;;;;;;20.10;60.10;;;;;;5037767;28;20538;-65
2022/05/07 09:29:01;;;;;;;;;;;20.20;59.80;;;;;;5032745;28;20289;-66
2022/05/07 09:31:27;;;;;;;;;;;20.30;60.30;;;;;;5065278;28;19917;-66
2022/05/07 09:35:47;;;;;;;;;;;20.20;57.70;;;;;;5032594;28;19927;-65
2022/05/07 09:36:42;;;;;;;;;;;20.30;57.90;;;;;;5040053;28;19917;-66
2022/05/07 09:39:10;;;;;;;;;;;20.60;58.00;;;;;;5031026;28;20638;-66
2022/05/07 09:41:35;;;;;;;;;;;20.80;58.80;;;;;;5050508;28;19926;-66
2022/05/07 09:44:01;;;;;;;;;;;20.90;58.20;;;;;;5051401;28;20360;-66
2022/05/07 09:46:30;;;;;;;;;;;20.90;56.10;;;;;;5047972;28;19921;-65
2022/05/07 09:48:58;;;;;;;;;;;21.00;55.80;;;;;;5048199;28;19928;-65
2022/05/07 09:51:24;;;;;;;;;;;21.00;55.90;;;;;;5041906;28;19920;-65
2022/05/07 09:59:18;;;;;;;;;;;21.10;56.10;;;;;;5032151;28;19917;-65
2022/05/07 10:02:03;;;;;;;;;;;21.00;55.30;;;;;;5030863;28;19917;-66
2022/05/07 10:04:46;;;;;;;;;;;21.20;54.70;;;;;;5033906;28;19917;-66
2022/05/07 10:07:23;;;;;;;;;;;21.20;54.30;;;;;;5042981;28;19963;-65
2022/05/07 10:10:14;;;;;;;;;;;21.20;55.30;;;;;;5050353;28;19921;-65
2022/05/07 10:12:43;;;;;;;;;;;21.00;56.00;;;;;;5038089;28;19921;-65
2022/05/07 10:15:09;;;;;;;;;;;21.10;56.50;;;;;;5031823;28;19924;-66
2022/05/07 10:17:35;;;;;;;;;;;21.10;56.30;;;;;;5044928;28;19924;-65
2022/05/07 10:20:05;;;;;;;;;;;21.20;56.30;;;;;;5043023;28;20008;-66
2022/05/07 10:22:31;;;;;;;;;;;21.30;56.00;;;;;;5036906;28;19917;-66
2022/05/07 10:25:05;;;;;;;;;;;21.40;55.00;;;;;;5033615;28;19940;-66
2022/05/07 10:27:32;;;;;;;;;;;21.40;54.60;;;;;;5032034;28;20568;-65
2022/05/07 10:30:13;;;;;;;;;;;21.60;55.30;;;;;;5033705;28;19916;-66
2022/05/07 10:32:46;;;;;;;;;;;21.80;54.10;;;;;;5046127;28;19920;-66
2022/05/07 10:35:12;;;;;;;;;;;21.90;54.20;;;;;;5047992;28;20007;-66
2022/05/07 10:37:41;;;;;;;;;;;21.90;53.70;;;;;;5048285;28;20004;-66
2022/05/07 10:40:12;;;;;;;;;;;22.00;53.60;;;;;;5039505;28;20043;-66
2022/05/07 10:42:39;;;;;;;;;;;22.10;53.80;;;;;;5042023;28;20320;-66
2022/05/07 10:45:06;;;;;;;;;;;22.20;53.20;;;;;;5032740;28;19916;-65
2022/05/07 10:47:31;;;;;;;;;;;22.20;50.90;;;;;;5045364;28;19923;-66
2022/05/07 10:50:06;;;;;;;;;;;22.20;50.30;;;;;;5048729;28;19916;-66
2022/05/07 10:52:32;;;;;;;;;;;22.30;51.70;;;;;;5044759;28;19921;-65
2022/05/07 10:55:04;;;;;;;;;;;22.40;50.90;;;;;;5040512;28;19921;-65
2022/05/07 10:57:40;;;;;;;;;;;22.40;51.80;;;;;;5039897;28;19921;-66
2022/05/07 11:00:15;;;;;;;;;;;22.20;52.00;;;;;;5049843;28;19921;-65
2022/05/07 11:02:42;;;;;;;;;;;22.20;52.60;;;;;;5040039;28;20411;-66
2022/05/07 11:05:07;;;;;;;;;;;22.20;52.30;;;;;;5040958;28;19917;-66
2022/05/07 11:07:33;;;;;;;;;;;22.10;52.50;;;;;;5045143;28;19924;-67
2022/05/07 11:09:59;;;;;;;;;;;22.00;52.20;;;;;;5047220;28;19962;-66
2022/05/07 11:12:26;;;;;;;;;;;22.20;52.20;;;;;;5031150;28;19972;-66
2022/05/07 11:14:52;;;;;;;;;;;22.40;52.40;;;;;;5031619;28;20406;-66
2022/05/07 11:17:28;;;;;;;;;;;22.50;51.80;;;;;;5042323;28;19970;-66
2022/05/07 11:19:53;;;;;;;;;;;22.80;50.90;;;;;;5038739;28;19921;-65
2022/05/07 11:22:23;;;;;;;;;;;23.10;51.10;;;;;;5033927;28;19927;-65
2022/05/07 11:24:54;;;;;;;;;;;23.10;50.30;;;;;;5031706;28;19927;-65
2022/05/07 11:27:20;;;;;;;;;;;23.40;49.30;;;;;;5037054;28;19923;-66
2022/05/07 11:29:46;;;;;;;;;;;23.50;49.30;;;;;;5037297;28;19921;-64
2022/05/07 11:32:12;;;;;;;;;;;23.80;49.00;;;;;;5030217;28;19917;-64
2022/05/07 11:34:38;;;;;;;;;;;24.00;48.80;;;;;;5046276;28;19916;-65
2022/05/07 11:37:21;;;;;;;;;;;24.00;48.50;;;;;;5043999;28;20354;-64
2022/05/07 11:39:46;;;;;;;;;;;24.00;48.00;;;;;;5048871;28;19966;-66
2022/05/07 11:42:12;;;;;;;;;;;24.00;49.00;;;;;;5049810;28;20447;-65
2022/05/07 11:47:22;;;;;;;;;;;24.00;48.70;;;;;;5050972;28;19921;-66
2022/05/07 11:50:04;;;;;;;;;;;23.80;49.80;;;;;;5032960;28;19921;-66
2022/05/07 11:52:30;;;;;;;;;;;23.90;49.70;;;;;;5061268;28;19925;-65
2022/05/07 11:54:56;;;;;;;;;;;23.80;49.40;;;;;;5044802;28;19924;-65
2022/05/07 11:57:31;;;;;;;;;;;23.60;50.10;;;;;;5049502;28;19916;-65
2022/05/07 11:59:57;;;;;;;;;;;23.40;50.80;;;;;;5034143;28;19921;-66
2022/05/07 12:02:23;;;;;;;;;;;23.50;50.80;;;;;;5033399;28;19917;-65
2022/05/07 12:04:58;;;;;;;;;;;23.40;51.20;;;;;;5041721;28;19917;-65
2022/05/07 12:07:23;;;;;;;;;;;23.50;50.70;;;;;;5045241;28;19924;-66
2022/05/07 12:09:49;;;;;;;;;;;23.30;50.80;;;;;;5031428;28;20353;-63
2022/05/07 12:12:14;;;;;;;;;;;23.30;50.80;;;;;;5043153;28;19921;-66
2022/05/07 12:14:40;;;;;;;;;;;23.20;50.10;;;;;;5045271;28;19917;-65
2022/05/07 12:19:49;;;;;;;;;;;23.10;50.10;;;;;;5040351;28;19921;-64
2022/05/07 12:30:27;;;;;;;;;;;23.80;49.00;;;;;;5044656;28;19928;-66
2022/05/07 12:32:54;;;;;;;;;;;24.10;48.70;;;;;;5041863;28;19921;-66
2022/05/07 12:35:19;;;;;;;;;;;24.00;48.70;;;;;;5040915;28;20292;-65
2022/05/07 12:37:45;;;;;;;;;;;24.20;48.70;;;;;;5041897;28;19921;-65
2022/05/07 12:40:12;;;;;;;;;;;24.20;47.50;;;;;;5050168;28;19916;-66
2022/05/07 12:42:38;;;;;;;;;;;23.80;48.70;;;;;;5044575;28;19971;-67
2022/05/07 12:45:04;;;;;;;;;;;23.80;49.20;;;;;;5040779;28;19916;-65
2022/05/07 12:47:29;;;;;;;;;;;24.10;49.40;;;;;;5046907;28;19916;-65
2022/05/07 12:49:55;;;;;;;;;;;23.80;48.90;;;;;;5051958;28;19921;-65
2022/05/07 12:52:22;;;;;;;;;;;23.60;49.30;;;;;;5048109;28;20262;-65
2022/05/07 12:54:48;;;;;;;;;;;23.50;49.40;;;;;;5046100;28;19921;-65
2022/05/07 12:57:13;;;;;;;;;;;23.10;49.70;;;;;;5035487;28;19986;-64
2022/05/07 12:59:39;;;;;;;;;;;22.80;50.80;;;;;;5043333;28;22320;-65
2022/05/07 13:02:06;;;;;;;;;;;22.70;51.40;;;;;;5032805;28;19921;-66
2022/05/07 13:04:32;;;;;;;;;;;23.00;52.10;;;;;;5040592;28;19917;-64
2022/05/07 13:06:58;;;;;;;;;;;23.60;51.80;;;;;;5047379;28;19923;-65
2022/05/07 13:09:23;;;;;;;;;;;25.10;50.00;;;;;;5036797;28;19950;-65
2022/05/07 13:11:49;;;;;;;;;;;25.30;48.20;;;;;;5032447;28;19924;-67
2022/05/07 13:14:15;;;;;;;;;;;26.30;46.30;;;;;;5037025;28;19924;-66
2022/05/07 13:16:40;;;;;;;;;;;26.70;45.40;;;;;;5049520;28;19917;-65
2022/05/07 13:19:06;;;;;;;;;;;27.40;44.60;;;;;;5035855;28;20010;-67
2022/05/07 13:21:31;;;;;;;;;;;27.80;42.90;;;;;;5009466;28;19966;-65
2022/05/07 13:23:57;;;;;;;;;;;26.60;42.60;;;;;;5029442;28;20027;-66
2022/05/07 13:26:22;;;;;;;;;;;25.90;43.70;;;;;;5031705;28;19925;-65
2022/05/07 13:28:48;;;;;;;;;;;25.00;44.70;;;;;;5034713;28;19917;-66
2022/05/07 13:31:14;;;;;;;;;;;24.50;45.80;;;;;;5051139;28;20008;-64
2022/05/07 13:33:40;;;;;;;;;;;25.20;46.30;;;;;;5052160;28;19998;-66
2022/05/07 13:36:05;;;;;;;;;;;26.00;46.00;;;;;;5040811;28;19960;-65
2022/05/07 13:38:31;;;;;;;;;;;25.70;44.50;;;;;;5032455;28;19917;-65
2022/05/07 13:40:56;;;;;;;;;;;26.00;44.30;;;;;;5030834;28;19967;-66
2022/05/07 13:43:22;;;;;;;;;;;25.70;44.50;;;;;;5030831;28;20280;-65
2022/05/07 13:45:47;;;;;;;;;;;25.10;44.60;;;;;;5032784;28;20036;-64
2022/05/07 13:48:13;;;;;;;;;;;24.50;45.60;;;;;;5032518;28;19925;-65
2022/05/07 13:50:39;;;;;;;;;;;24.00;46.70;;;;;;5032660;28;20438;-66
2022/05/07 13:53:04;;;;;;;;;;;24.50;46.40;;;;;;5036744;28;19995;-65
2022/05/07 13:55:30;;;;;;;;;;;24.60;46.60;;;;;;5045421;28;20640;-66
2022/05/07 13:57:55;;;;;;;;;;;24.20;46.70;;;;;;5049119;28;19924;-65
2022/05/07 14:00:21;;;;;;;;;;;25.60;46.10;;;;;;5031746;28;20011;-65
2022/05/07 14:02:47;;;;;;;;;;;26.60;44.00;;;;;;5041598;28;19928;-65
2022/05/07 14:05:13;;;;;;;;;;;27.20;42.60;;;;;;5041010;28;19917;-64
2022/05/07 14:07:38;;;;;;;;;;;26.40;42.30;;;;;;5045892;28;19964;-65
2022/05/07 14:10:05;;;;;;;;;;;27.30;42.40;;;;;;5046436;28;20340;-64
2022/05/07 14:12:30;;;;;;;;;;;27.50;41.00;;;;;;5045590;28;19921;-66
2022/05/07 14:14:56;;;;;;;;;;;26.70;41.10;;;;;;5035394;28;19975;-64
2022/05/07 14:17:21;;;;;;;;;;;25.90;42.60;;;;;;5050957;28;19956;-65
2022/05/07 14:19:47;;;;;;;;;;;26.30;42.70;;;;;;5051012;28;19952;-66
2022/05/07 14:22:12;;;;;;;;;;;25.20;43.30;;;;;;5041873;28;19921;-65
2022/05/07 14:24:39;;;;;;;;;;;24.10;44.20;;;;;;5050684;28;19917;-65
2022/05/07 14:27:08;;;;;;;;;;;23.30;45.90;;;;;;5044367;28;20346;-66
2022/05/07 14:29:34;;;;;;;;;;;22.80;46.90;;;;;;5030494;28;19960;-65
2022/05/07 14:32:02;;;;;;;;;;;22.60;47.70;;;;;;5030320;28;20352;-66
2022/05/07 14:34:28;;;;;;;;;;;23.90;46.90;;;;;;5041145;28;20012;-64
2022/05/07 14:36:54;;;;;;;;;;;23.60;46.80;;;;;;5037440;28;20332;-64
2022/05/07 14:39:19;;;;;;;;;;;23.00;47.00;;;;;;5039211;28;19921;-64
2022/05/07 14:41:45;;;;;;;;;;;22.70;47.50;;;;;;5050352;28;19959;-64
2022/05/07 14:44:10;;;;;;;;;;;22.20;48.70;;;;;;5048867;28;19921;-65
2022/05/07 14:46:36;;;;;;;;;;;21.70;49.20;;;;;;5050645;28;19931;-64
2022/05/07 14:49:03;;;;;;;;;;;21.60;49.50;;;;;;5044577;28;20325;-66
2022/05/07 14:51:29;;;;;;;;;;;21.20;50.10;;;;;;5037488;28;20376;-65
2022/05/07 14:53:54;;;;;;;;;;;21.10;51.00;;;;;;5040132;28;20006;-66
2022/05/07 14:56:20;;;;;;;;;;;20.80;51.90;;;;;;5033439;28;19925;-65